createdAt,value
2019-04-22T00:01:50.269Z,10.10
2019-04-22T00:04:32.191Z,10.48
2019-04-22T00:07:18.831Z,8.40
2019-04-22T00:09:45.730Z,12.30
2019-04-22T00:12:19.670Z,8.75
2019-04-22T00:14:47.726Z,9.43
2019-04-22T00:17:27.685Z,10.23
2019-04-22T00:22:23.871Z,8.85
2019-04-22T00:24:52.910Z,10.35
2019-04-22T00:27:29.605Z,9.33
2019-04-22T00:30:07.268Z,10.05
2019-04-22T00:32:36.873Z,10.15
2019-04-22T00:35:07.115Z,10.03
2019-04-22T00:40:15.563Z,9.43
2019-04-22T00:42:41.091Z,7.65
2019-04-22T00:45:11.649Z,9.38
2019-04-22T00:47:39.052Z,10.72
2019-04-22T00:52:50.878Z,9.80
2019-04-22T00:55:22.409Z,8.90
2019-04-22T00:57:46.251Z,10.30
2019-04-22T01:00:18.117Z,9.28
2019-04-22T01:05:22.009Z,13.32
2019-04-22T01:07:49.224Z,10.38
2019-04-22T01:10:26.396Z,7.75
2019-04-22T01:12:54.675Z,8.13
2019-04-22T01:15:30.278Z,8.35
2019-04-22T01:18:45.809Z,7.70
2019-04-22T01:23:40.800Z,9.78
2019-04-22T01:26:15.677Z,9.98
2019-04-22T01:28:44.901Z,8.10
2019-04-22T01:31:08.272Z,8.90
2019-04-22T01:33:40.200Z,9.08
2019-04-22T01:36:24.521Z,8.40
2019-04-22T01:38:58.335Z,9.20
2019-04-22T01:41:42.508Z,7.83
2019-04-22T01:46:38.906Z,13.50
2019-04-22T01:49:08.440Z,11.80
2019-04-22T01:51:48.583Z,10.60
2019-04-22T01:54:16.068Z,11.78
2019-04-22T01:56:44.913Z,9.78
2019-04-22T01:59:05.074Z,10.40
2019-04-22T02:04:17.381Z,11.78
2019-04-22T02:09:23.798Z,8.48
2019-04-22T02:16:50.294Z,10.00
2019-04-22T02:19:22.860Z,7.12
2019-04-22T02:21:51.162Z,9.50
2019-04-22T02:24:29.469Z,9.13
2019-04-22T02:26:48.223Z,9.95
2019-04-22T02:29:24.303Z,7.20
2019-04-22T02:32:04.910Z,10.53
2019-04-22T02:34:32.822Z,9.00
2019-04-22T02:36:56.235Z,7.75
2019-04-22T02:42:08.717Z,8.53
2019-04-22T02:52:25.548Z,7.50
2019-04-22T02:59:54.634Z,9.63
2019-04-22T03:04:46.539Z,10.32
2019-04-22T03:07:21.189Z,9.20
2019-04-22T03:09:47.896Z,9.38
2019-04-22T03:14:48.541Z,7.85
2019-04-22T03:17:28.686Z,7.15
2019-04-22T03:20:01.912Z,9.30
2019-04-22T03:25:34.327Z,8.18
2019-04-22T03:27:24.904Z,9.23
2019-04-22T03:33:09.165Z,8.90
2019-04-22T03:37:50.575Z,7.25
2019-04-22T03:40:30.770Z,8.45
2019-04-22T03:57:56.034Z,8.63
2019-04-22T04:00:35.682Z,8.33
2019-04-22T04:05:41.182Z,9.25
2019-04-22T04:08:05.761Z,10.43
2019-04-22T04:15:34.308Z,8.53
2019-04-22T04:18:12.885Z,8.50
2019-04-22T04:28:43.393Z,8.40
2019-04-22T04:31:25.420Z,9.85
2019-04-22T04:33:35.914Z,9.08
2019-04-22T04:36:03.511Z,8.53
2019-04-22T04:38:34.160Z,8.80
2019-04-22T04:41:06.894Z,10.95
2019-04-22T04:43:37.796Z,8.97
2019-04-22T04:46:11.705Z,8.63
2019-04-22T04:53:31.819Z,8.45
2019-04-22T04:56:10.859Z,7.53
2019-04-22T05:01:10.870Z,9.40
2019-04-22T05:03:49.283Z,7.22
2019-04-22T05:06:16.486Z,8.08
2019-04-22T05:11:24.946Z,7.58
2019-04-22T05:18:50.939Z,9.28
2019-04-22T05:21:16.476Z,8.13
2019-04-22T05:26:21.413Z,8.73
2019-04-22T05:28:52.089Z,7.03
2019-04-22T05:33:48.323Z,7.58
2019-04-22T05:36:25.892Z,6.75
2019-04-22T05:38:53.466Z,6.37
2019-04-22T05:41:23.863Z,8.68
2019-04-22T05:44:00.415Z,6.47
2019-04-22T05:53:57.120Z,6.90
2019-04-22T05:56:33.456Z,6.20
2019-04-22T06:04:00.373Z,6.20
2019-04-22T06:06:22.741Z,8.25
2019-04-22T06:11:29.875Z,7.85
2019-04-22T06:13:56.056Z,6.75
2019-04-22T06:16:38.425Z,9.20
2019-04-22T06:21:37.045Z,7.10
2019-04-22T06:24:10.617Z,6.17
2019-04-22T06:26:45.782Z,6.65
2019-04-22T06:29:09.341Z,6.90
2019-04-22T06:31:52.569Z,6.37
2019-04-22T06:36:46.419Z,7.17
2019-04-22T06:39:14.619Z,8.38
2019-04-22T06:46:49.217Z,8.10
2019-04-22T06:52:08.100Z,7.67
2019-04-22T06:54:21.660Z,8.15
2019-04-22T06:59:19.073Z,6.40
2019-04-22T07:01:50.007Z,6.28
2019-04-22T07:06:56.486Z,6.85
2019-04-22T07:11:57.575Z,5.97
2019-04-22T10:08:52.642Z,5.42
2019-04-22T10:18:17.840Z,5.60
2019-04-22T10:21:00.945Z,5.37
2019-04-22T10:27:07.737Z,5.10
2019-04-22T10:30:47.426Z,7.15
2019-04-22T10:37:14.418Z,5.53
2019-04-22T10:39:18.508Z,6.20
2019-04-22T10:42:11.213Z,4.83
2019-04-22T10:45:19.470Z,6.72
2019-04-22T10:52:55.259Z,5.25
2019-04-22T10:56:27.619Z,5.45
2019-04-22T11:02:37.256Z,5.92
2019-04-22T11:09:18.259Z,7.55
2019-04-22T11:12:30.422Z,7.25
2019-04-22T11:14:37.733Z,6.62
2019-04-22T11:17:08.904Z,5.15
2019-04-22T11:19:43.540Z,6.05
2019-04-22T11:22:20.696Z,8.78
2019-04-22T11:24:44.522Z,6.55
2019-04-22T11:29:47.596Z,4.75
2019-04-22T11:32:22.402Z,5.37
2019-04-22T11:37:42.898Z,5.20
2019-04-22T11:45:21.507Z,4.50
2019-04-22T11:50:35.759Z,4.95
2019-04-22T11:53:04.932Z,7.55
2019-04-22T11:55:40.426Z,4.95
2019-04-22T12:00:43.245Z,7.42
2019-04-22T12:03:12.701Z,5.62
2019-04-22T12:05:41.798Z,6.03
2019-04-22T12:08:11.283Z,5.40
2019-04-22T12:10:46.879Z,4.90
2019-04-22T12:13:12.264Z,4.53
2019-04-22T12:15:44.924Z,6.20
2019-04-22T12:18:19.537Z,5.65
2019-04-22T12:20:48.873Z,5.17
2019-04-22T12:23:19.013Z,6.03
2019-04-22T12:25:57.101Z,5.25
2019-04-22T12:28:21.145Z,5.15
2019-04-22T12:30:51.243Z,5.08
2019-04-22T12:33:21.237Z,5.17
2019-04-22T12:35:56.839Z,7.50
2019-04-22T12:38:27.432Z,5.60
2019-04-22T12:41:01.290Z,4.85
2019-04-22T12:43:28.278Z,7.15
2019-04-22T12:45:58.484Z,5.90
2019-04-22T12:48:27.572Z,6.87
2019-04-22T12:50:58.527Z,5.90
2019-04-22T12:55:59.293Z,7.22
2019-04-22T12:58:29.603Z,6.72
2019-04-22T13:01:01.058Z,6.90
2019-04-22T13:03:31.868Z,6.22
2019-04-22T13:06:02.095Z,5.95
2019-04-22T13:08:33.580Z,4.97
2019-04-22T13:11:10.590Z,7.22
2019-04-22T13:13:34.702Z,5.67
2019-04-22T13:16:53.620Z,6.25
2019-04-22T13:21:58.556Z,6.00
2019-04-22T13:26:57.311Z,5.90
2019-04-22T13:29:27.607Z,5.05
2019-04-22T13:31:58.427Z,6.60
2019-04-22T13:34:34.815Z,4.97
2019-04-22T13:37:01.173Z,7.08
2019-04-22T13:39:31.311Z,6.28
2019-04-22T13:42:04.599Z,5.78
2019-04-22T13:47:17.056Z,4.85
2019-04-22T13:57:19.973Z,4.40
2019-04-22T13:59:42.091Z,4.60
2019-04-22T14:02:28.640Z,6.25
2019-04-22T14:04:59.149Z,7.62
2019-04-22T14:07:28.838Z,7.55
2019-04-22T14:09:58.286Z,4.55
2019-04-22T14:12:28.687Z,5.97
2019-04-22T14:15:29.839Z,6.03
2019-04-22T14:18:00.898Z,6.80
2019-04-22T14:20:31.435Z,8.28
2019-04-22T14:23:03.062Z,5.37
2019-04-22T14:25:32.708Z,4.87
2019-04-22T14:28:09.155Z,6.50
2019-04-22T14:30:34.574Z,7.65
2019-04-22T14:33:04.923Z,5.72
2019-04-22T14:35:35.524Z,6.45
2019-04-22T14:40:36.656Z,5.10
2019-04-22T14:46:08.100Z,6.20
2019-04-22T14:51:00.938Z,5.37
2019-04-22T14:53:40.149Z,7.55
2019-04-22T14:55:48.632Z,5.25
2019-04-22T14:58:19.599Z,5.72
2019-04-22T15:03:19.701Z,5.72
2019-04-22T15:05:50.302Z,4.67
2019-04-22T15:08:21.285Z,6.28
2019-04-22T15:10:51.701Z,6.55
2019-04-22T15:13:21.329Z,5.30
2019-04-22T15:16:25.907Z,7.12
2019-04-22T15:19:27.585Z,5.03
2019-04-22T15:21:58.650Z,3.90
2019-04-22T15:24:29.379Z,4.00
2019-04-22T15:27:02.727Z,5.28
2019-04-22T15:32:00.941Z,5.85
2019-04-22T15:34:30.651Z,4.75
2019-04-22T15:37:00.287Z,5.05
2019-04-22T15:39:29.459Z,5.08
2019-04-22T15:42:11.376Z,4.42
2019-04-22T15:44:33.815Z,7.22
2019-04-22T15:47:07.061Z,4.50
2019-04-22T15:49:36.413Z,5.15
2019-04-22T15:52:07.528Z,4.95
2019-04-22T15:54:37.661Z,5.03
2019-04-22T15:57:08.733Z,4.55
2019-04-22T15:59:54.716Z,5.22
2019-04-22T16:02:10.076Z,3.55
2019-04-22T16:04:41.165Z,7.33
2019-04-22T16:07:10.850Z,5.55
2019-04-22T16:09:41.652Z,6.47
2019-04-22T16:12:20.005Z,7.67
2019-04-22T16:14:47.923Z,4.47
2019-04-22T16:17:14.784Z,4.20
2019-04-22T16:19:45.346Z,6.12
2019-04-22T16:25:04.859Z,5.65
2019-04-22T16:27:34.270Z,5.87
2019-04-22T16:30:09.609Z,3.72
2019-04-22T16:32:39.106Z,4.60
2019-04-22T16:35:08.794Z,4.40
2019-04-22T16:37:38.988Z,5.60
2019-04-22T16:40:10.168Z,4.37
2019-04-22T16:42:45.914Z,5.95
2019-04-22T16:45:11.512Z,4.80
2019-04-22T16:47:41.826Z,3.95
2019-04-22T16:50:11.608Z,6.08
2019-04-22T16:52:41.833Z,4.75
2019-04-22T16:55:12.852Z,5.83
2019-04-22T16:57:45.955Z,6.62
2019-04-22T17:00:20.759Z,5.92
2019-04-22T17:03:16.460Z,6.28
2019-04-22T17:06:05.431Z,5.40
2019-04-22T17:08:34.864Z,5.30
2019-04-22T17:11:04.768Z,6.28
2019-04-22T17:13:34.658Z,3.95
2019-04-22T17:16:06.886Z,5.62
2019-04-22T17:18:37.191Z,6.17
2019-04-22T17:21:23.596Z,5.28
2019-04-22T17:23:55.819Z,5.37
2019-04-22T17:26:26.355Z,4.20
2019-04-22T17:33:57.096Z,5.35
2019-04-22T17:36:26.588Z,5.00
2019-04-22T17:41:52.693Z,4.25
2019-04-22T17:44:30.921Z,4.30
2019-04-22T17:47:13.859Z,4.92
2019-04-22T17:49:57.957Z,4.78
2019-04-22T17:52:29.291Z,4.53
2019-04-22T17:55:04.495Z,3.92
2019-04-22T17:57:23.851Z,4.97
2019-04-22T17:59:55.051Z,4.37
2019-04-22T18:02:25.324Z,7.15
2019-04-22T18:04:46.773Z,5.25
2019-04-22T18:07:35.149Z,4.62
2019-04-22T18:10:25.408Z,6.75
2019-04-22T18:12:38.231Z,5.65
2019-04-22T18:15:05.596Z,6.95
2019-04-22T18:17:41.630Z,5.55
2019-04-22T18:20:04.690Z,5.75
2019-04-22T18:22:31.090Z,4.55
2019-04-22T18:25:00.915Z,4.95
2019-04-22T18:27:48.954Z,6.20
2019-04-22T18:32:41.229Z,4.75
2019-04-22T18:38:03.066Z,6.15
2019-04-22T18:40:37.078Z,6.75
2019-04-22T18:43:09.992Z,3.42
2019-04-22T18:45:52.754Z,3.85
2019-04-22T18:48:06.319Z,3.92
2019-04-22T18:50:56.289Z,3.87
2019-04-22T18:54:02.207Z,5.22
2019-04-22T18:56:52.413Z,5.75
2019-04-22T18:59:12.484Z,4.37
2019-04-22T19:01:35.496Z,5.28
2019-04-22T19:07:16.897Z,5.80
2019-04-22T19:09:41.521Z,5.17
2019-04-22T19:12:15.203Z,4.12
2019-04-22T19:14:45.371Z,4.95
2019-04-22T19:17:19.739Z,3.12
2019-04-22T19:19:54.368Z,5.30
2019-04-22T19:22:07.557Z,5.30
2019-04-22T19:24:40.041Z,3.70
2019-04-22T19:29:46.834Z,4.10
2019-04-22T19:32:14.746Z,7.70
2019-04-22T19:34:47.700Z,5.25
2019-04-22T19:37:17.314Z,4.12
2019-04-22T19:40:01.797Z,6.15
2019-04-22T19:42:30.769Z,4.58
2019-04-22T19:44:55.363Z,4.33
2019-04-22T19:47:30.405Z,3.20
2019-04-22T19:50:09.468Z,3.70
2019-04-22T19:52:28.752Z,4.08
2019-04-22T19:55:04.854Z,5.90
2019-04-22T19:57:27.622Z,5.45
2019-04-22T20:00:05.098Z,4.25
2019-04-22T20:03:03.652Z,3.95
2019-04-22T20:06:01.277Z,3.98
2019-04-22T20:08:26.833Z,4.87
2019-04-22T20:10:59.222Z,6.87
2019-04-22T20:13:44.236Z,5.53
2019-04-22T20:15:59.740Z,5.25
2019-04-22T20:18:50.198Z,4.10
2019-04-22T20:21:18.301Z,8.25
2019-04-22T20:23:39.523Z,4.78
2019-04-22T20:26:15.243Z,8.35
2019-04-22T20:28:52.773Z,7.83
2019-04-22T20:36:47.533Z,6.87
2019-04-22T20:41:24.851Z,5.60
2019-04-22T20:44:04.735Z,4.65
2019-04-22T20:46:31.363Z,4.72
2019-04-22T20:49:00.207Z,5.70
2019-04-22T20:51:44.610Z,6.00
2019-04-22T20:56:33.734Z,5.03
2019-04-22T20:59:08.755Z,4.90
2019-04-22T21:03:59.719Z,4.85
2019-04-22T21:06:47.341Z,5.97
2019-04-22T21:09:22.070Z,5.45
2019-04-22T21:11:49.397Z,5.00
2019-04-22T21:14:24.496Z,4.87
2019-04-22T21:17:00.663Z,4.72
2019-04-22T21:19:40.398Z,3.72
2019-04-22T21:22:03.882Z,5.25
2019-04-22T21:24:29.094Z,4.30
2019-04-22T21:27:13.919Z,6.20
2019-04-22T21:32:15.613Z,6.53
2019-04-22T21:34:53.605Z,7.83
2019-04-22T21:37:20.786Z,5.00
2019-04-22T21:39:42.011Z,5.92
2019-04-22T21:42:24.165Z,5.10
2019-04-22T21:44:49.759Z,4.50
2019-04-22T21:53:02.294Z,5.37
2019-04-22T21:55:31.709Z,4.53
2019-04-22T21:58:31.906Z,4.78
2019-04-22T22:01:18.646Z,5.00
2019-04-22T22:06:09.283Z,4.00
2019-04-22T22:08:53.210Z,4.00
2019-04-22T22:11:22.814Z,5.50
2019-04-22T22:13:50.353Z,5.80
2019-04-22T22:19:02.298Z,6.08
2019-04-22T22:24:01.377Z,7.65
2019-04-22T22:26:26.542Z,4.30
2019-04-22T22:29:04.624Z,4.15
2019-04-22T22:31:43.204Z,7.55
2019-04-22T22:34:09.495Z,5.58
2019-04-22T22:36:35.121Z,4.53
2019-04-22T22:39:05.654Z,4.87
2019-04-22T22:41:21.498Z,8.30
2019-04-22T22:46:34.050Z,6.22
2019-04-22T22:49:20.352Z,5.62
2019-04-22T22:52:26.284Z,4.35
2019-04-22T22:54:18.383Z,4.78
2019-04-22T22:57:01.172Z,8.10
2019-04-22T22:59:29.279Z,7.50
2019-04-22T23:01:58.480Z,9.05
2019-04-22T23:04:35.592Z,6.40
2019-04-22T23:07:04.291Z,4.35
2019-04-22T23:09:29.020Z,6.35
2019-04-22T23:14:34.328Z,5.22
2019-04-22T23:16:52.964Z,6.83
2019-04-22T23:19:21.797Z,6.45
2019-04-22T23:21:56.144Z,7.12
2019-04-22T23:25:14.931Z,5.55
2019-04-22T23:27:39.009Z,7.80
2019-04-22T23:30:27.482Z,5.45
2019-04-22T23:42:53.844Z,5.25
2019-04-22T23:45:22.579Z,7.00
2019-04-22T23:47:44.873Z,5.30
2019-04-22T23:50:26.527Z,5.22
2019-04-22T23:53:00.131Z,4.17
2019-04-22T23:55:34.409Z,4.97
2019-04-22T23:58:03.579Z,7.22
